sensor_id;sensor_type;location;lat;lon;timestamp;P1;durP1;ratioP1;P2;durP2;ratioP2
64887;SDS011;51386;53.082;8.816;2023-02-22T00:00:30;31.73;;;22.47;;
64887;SDS011;51386;53.082;8.816;2023-02-22T00:03:09;31.30;;;21.87;;
64887;SDS011;51386;53.082;8.816;2023-02-22T00:05:40;29.50;;;22.33;;
64887;SDS011;51386;53.082;8.816;2023-02-22T00:08:19;29.43;;;21.07;;
64887;SDS011;51386;53.082;8.816;2023-02-22T00:10:48;28.40;;;20.83;;
64887;SDS011;51386;53.082;8.816;2023-02-22T00:13:17;28.37;;;20.20;;
64887;SDS011;51386;53.082;8.816;2023-02-22T00:15:49;31.33;;;22.20;;
64887;SDS011;51386;53.082;8.816;2023-02-22T00:18:16;27.10;;;20.63;;
64887;SDS011;51386;53.082;8.816;2023-02-22T00:20:44;28.63;;;20.77;;
64887;SDS011;51386;53.082;8.816;2023-02-22T00:23:13;29.03;;;20.77;;
64887;SDS011;51386;53.082;8.816;2023-02-22T00:25:44;31.80;;;20.73;;
64887;SDS011;51386;53.082;8.816;2023-02-22T00:28:12;27.77;;;19.53;;
64887;SDS011;51386;53.082;8.816;2023-02-22T00:30:40;25.40;;;18.20;;
64887;SDS011;51386;53.082;8.816;2023-02-22T00:33:11;25.60;;;18.70;;
64887;SDS011;51386;53.082;8.816;2023-02-22T00:35:41;30.87;;;21.70;;
64887;SDS011;51386;53.082;8.816;2023-02-22T00:38:11;29.37;;;19.20;;
64887;SDS011;51386;53.082;8.816;2023-02-22T00:40:40;29.13;;;20.53;;
64887;SDS011;51386;53.082;8.816;2023-02-22T00:43:08;30.17;;;21.67;;
64887;SDS011;51386;53.082;8.816;2023-02-22T00:45:35;30.47;;;21.70;;
64887;SDS011;51386;53.082;8.816;2023-02-22T00:48:04;31.53;;;22.33;;
64887;SDS011;51386;53.082;8.816;2023-02-22T00:50:33;28.47;;;19.60;;
64887;SDS011;51386;53.082;8.816;2023-02-22T00:53:01;26.63;;;20.43;;
64887;SDS011;51386;53.082;8.816;2023-02-22T00:55:30;29.60;;;20.27;;
64887;SDS011;51386;53.082;8.816;2023-02-22T00:58:00;26.27;;;18.93;;
64887;SDS011;51386;53.082;8.816;2023-02-22T01:00:29;26.50;;;19.30;;
64887;SDS011;51386;53.082;8.816;2023-02-22T01:02:59;26.07;;;19.43;;
64887;SDS011;51386;53.082;8.816;2023-02-22T01:05:26;27.40;;;20.03;;
64887;SDS011;51386;53.082;8.816;2023-02-22T01:07:57;28.47;;;20.47;;
64887;SDS011;51386;53.082;8.816;2023-02-22T01:10:26;27.20;;;19.03;;
64887;SDS011;51386;53.082;8.816;2023-02-22T01:12:56;28.67;;;20.13;;
64887;SDS011;51386;53.082;8.816;2023-02-22T01:15:26;24.47;;;18.63;;
64887;SDS011;51386;53.082;8.816;2023-02-22T01:17:56;27.33;;;18.80;;
64887;SDS011;51386;53.082;8.816;2023-02-22T01:20:25;27.57;;;20.10;;
64887;SDS011;51386;53.082;8.816;2023-02-22T01:22:55;26.57;;;18.67;;
64887;SDS011;51386;53.082;8.816;2023-02-22T01:25:26;26.03;;;18.00;;
64887;SDS011;51386;53.082;8.816;2023-02-22T01:27:57;26.53;;;19.17;;
64887;SDS011;51386;53.082;8.816;2023-02-22T01:30:27;22.60;;;17.40;;
64887;SDS011;51386;53.082;8.816;2023-02-22T01:32:58;23.83;;;18.33;;
64887;SDS011;51386;53.082;8.816;2023-02-22T01:35:28;21.67;;;16.60;;
64887;SDS011;51386;53.082;8.816;2023-02-22T01:37:59;22.73;;;17.83;;
64887;SDS011;51386;53.082;8.816;2023-02-22T01:40:27;20.87;;;17.17;;
64887;SDS011;51386;53.082;8.816;2023-02-22T01:42:57;23.83;;;17.87;;
64887;SDS011;51386;53.082;8.816;2023-02-22T01:45:36;23.57;;;17.63;;
64887;SDS011;51386;53.082;8.816;2023-02-22T01:48:31;22.17;;;15.87;;
64887;SDS011;51386;53.082;8.816;2023-02-22T01:51:06;24.80;;;18.27;;
64887;SDS011;51386;53.082;8.816;2023-02-22T01:53:40;24.73;;;18.73;;
64887;SDS011;51386;53.082;8.816;2023-02-22T01:56:14;23.60;;;18.50;;
64887;SDS011;51386;53.082;8.816;2023-02-22T01:58:45;27.30;;;19.70;;
64887;SDS011;51386;53.082;8.816;2023-02-22T02:01:19;22.83;;;17.50;;
64887;SDS011;51386;53.082;8.816;2023-02-22T02:03:49;24.10;;;17.43;;
64887;SDS011;51386;53.082;8.816;2023-02-22T02:06:23;23.40;;;18.80;;
64887;SDS011;51386;53.082;8.816;2023-02-22T02:08:56;24.50;;;18.67;;
64887;SDS011;51386;53.082;8.816;2023-02-22T02:11:29;21.93;;;17.30;;
64887;SDS011;51386;53.082;8.816;2023-02-22T02:13:57;19.93;;;16.57;;
64887;SDS011;51386;53.082;8.816;2023-02-22T02:16:25;26.53;;;20.17;;
64887;SDS011;51386;53.082;8.816;2023-02-22T02:19:04;26.90;;;20.60;;
64887;SDS011;51386;53.082;8.816;2023-02-22T02:21:49;24.23;;;17.40;;
64887;SDS011;51386;53.082;8.816;2023-02-22T02:24:58;20.97;;;15.90;;
64887;SDS011;51386;53.082;8.816;2023-02-22T02:28:14;22.07;;;18.07;;
64887;SDS011;51386;53.082;8.816;2023-02-22T02:31:32;25.20;;;19.70;;
64887;SDS011;51386;53.082;8.816;2023-02-22T02:34:36;23.87;;;18.67;;
64887;SDS011;51386;53.082;8.816;2023-02-22T02:37:16;22.47;;;16.57;;
64887;SDS011;51386;53.082;8.816;2023-02-22T02:39:55;23.90;;;17.30;;
64887;SDS011;51386;53.082;8.816;2023-02-22T02:42:32;21.50;;;17.13;;
64887;SDS011;51386;53.082;8.816;2023-02-22T02:45:07;23.07;;;16.70;;
64887;SDS011;51386;53.082;8.816;2023-02-22T02:47:43;22.90;;;17.77;;
64887;SDS011;51386;53.082;8.816;2023-02-22T02:50:17;25.27;;;19.07;;
64887;SDS011;51386;53.082;8.816;2023-02-22T02:52:50;28.17;;;19.97;;
64887;SDS011;51386;53.082;8.816;2023-02-22T02:55:22;22.53;;;17.53;;
64887;SDS011;51386;53.082;8.816;2023-02-22T02:57:50;23.30;;;18.23;;
64887;SDS011;51386;53.082;8.816;2023-02-22T03:00:19;25.27;;;19.10;;
64887;SDS011;51386;53.082;8.816;2023-02-22T03:02:59;22.30;;;16.90;;
64887;SDS011;51386;53.082;8.816;2023-02-22T03:05:46;22.87;;;17.77;;
64887;SDS011;51386;53.082;8.816;2023-02-22T03:08:38;20.67;;;16.63;;
64887;SDS011;51386;53.082;8.816;2023-02-22T03:11:16;18.53;;;15.23;;
64887;SDS011;51386;53.082;8.816;2023-02-22T03:13:49;20.70;;;16.57;;
64887;SDS011;51386;53.082;8.816;2023-02-22T03:16:29;25.77;;;19.20;;
64887;SDS011;51386;53.082;8.816;2023-02-22T03:19:14;23.67;;;18.00;;
64887;SDS011;51386;53.082;8.816;2023-02-22T03:21:54;25.87;;;19.47;;
64887;SDS011;51386;53.082;8.816;2023-02-22T03:24:30;25.13;;;19.90;;
64887;SDS011;51386;53.082;8.816;2023-02-22T03:27:03;24.57;;;19.13;;
64887;SDS011;51386;53.082;8.816;2023-02-22T03:29:36;23.13;;;18.47;;
64887;SDS011;51386;53.082;8.816;2023-02-22T03:32:09;24.93;;;19.00;;
64887;SDS011;51386;53.082;8.816;2023-02-22T03:34:44;24.60;;;19.10;;
64887;SDS011;51386;53.082;8.816;2023-02-22T03:37:18;23.10;;;17.97;;
64887;SDS011;51386;53.082;8.816;2023-02-22T03:39:52;27.60;;;20.77;;
64887;SDS011;51386;53.082;8.816;2023-02-22T03:42:25;30.30;;;23.03;;
64887;SDS011;51386;53.082;8.816;2023-02-22T03:44:57;28.77;;;21.83;;
64887;SDS011;51386;53.082;8.816;2023-02-22T03:47:31;25.80;;;20.87;;
64887;SDS011;51386;53.082;8.816;2023-02-22T03:50:08;30.67;;;23.40;;
64887;SDS011;51386;53.082;8.816;2023-02-22T03:52:40;31.37;;;23.47;;
64887;SDS011;51386;53.082;8.816;2023-02-22T03:55:09;37.83;;;25.63;;
64887;SDS011;51386;53.082;8.816;2023-02-22T03:57:39;32.87;;;23.73;;
64887;SDS011;51386;53.082;8.816;2023-02-22T04:00:11;32.27;;;24.10;;
64887;SDS011;51386;53.082;8.816;2023-02-22T04:02:45;33.40;;;24.47;;
64887;SDS011;51386;53.082;8.816;2023-02-22T04:05:13;37.03;;;27.87;;
64887;SDS011;51386;53.082;8.816;2023-02-22T04:07:41;33.27;;;24.27;;
64887;SDS011;51386;53.082;8.816;2023-02-22T04:10:09;36.97;;;25.53;;
64887;SDS011;51386;53.082;8.816;2023-02-22T04:12:37;34.00;;;23.57;;
64887;SDS011;51386;53.082;8.816;2023-02-22T04:15:04;33.33;;;24.97;;
64887;SDS011;51386;53.082;8.816;2023-02-22T04:17:33;35.53;;;24.87;;
64887;SDS011;51386;53.082;8.816;2023-02-22T04:20:00;39.97;;;26.50;;
64887;SDS011;51386;53.082;8.816;2023-02-22T04:22:30;33.67;;;24.17;;
64887;SDS011;51386;53.082;8.816;2023-02-22T04:24:57;34.67;;;24.83;;
64887;SDS011;51386;53.082;8.816;2023-02-22T04:27:24;34.73;;;25.73;;
64887;SDS011;51386;53.082;8.816;2023-02-22T04:29:51;34.90;;;24.40;;
64887;SDS011;51386;53.082;8.816;2023-02-22T04:32:18;32.63;;;23.83;;
64887;SDS011;51386;53.082;8.816;2023-02-22T04:34:45;36.37;;;25.83;;
64887;SDS011;51386;53.082;8.816;2023-02-22T04:37:12;33.80;;;25.63;;
64887;SDS011;51386;53.082;8.816;2023-02-22T04:39:40;34.73;;;25.07;;
64887;SDS011;51386;53.082;8.816;2023-02-22T04:42:07;29.93;;;22.77;;
64887;SDS011;51386;53.082;8.816;2023-02-22T04:44:34;32.60;;;21.93;;
64887;SDS011;51386;53.082;8.816;2023-02-22T04:47:01;34.30;;;24.73;;
64887;SDS011;51386;53.082;8.816;2023-02-22T04:49:28;34.20;;;22.97;;
64887;SDS011;51386;53.082;8.816;2023-02-22T04:51:55;38.93;;;29.10;;
64887;SDS011;51386;53.082;8.816;2023-02-22T04:54:22;30.93;;;23.30;;
64887;SDS011;51386;53.082;8.816;2023-02-22T04:56:50;30.40;;;22.87;;
64887;SDS011;51386;53.082;8.816;2023-02-22T04:59:17;31.17;;;23.47;;
64887;SDS011;51386;53.082;8.816;2023-02-22T05:01:45;32.47;;;24.93;;
64887;SDS011;51386;53.082;8.816;2023-02-22T05:04:12;36.47;;;25.77;;
64887;SDS011;51386;53.082;8.816;2023-02-22T05:06:39;31.70;;;24.23;;
64887;SDS011;51386;53.082;8.816;2023-02-22T05:09:06;28.93;;;23.73;;
64887;SDS011;51386;53.082;8.816;2023-02-22T05:11:33;30.37;;;21.93;;
64887;SDS011;51386;53.082;8.816;2023-02-22T05:14:01;32.70;;;24.60;;
64887;SDS011;51386;53.082;8.816;2023-02-22T05:16:28;31.47;;;22.93;;
64887;SDS011;51386;53.082;8.816;2023-02-22T05:18:55;33.30;;;23.23;;
64887;SDS011;51386;53.082;8.816;2023-02-22T05:21:22;31.10;;;23.87;;
64887;SDS011;51386;53.082;8.816;2023-02-22T05:23:49;29.40;;;23.43;;
64887;SDS011;51386;53.082;8.816;2023-02-22T05:26:16;29.03;;;22.53;;
64887;SDS011;51386;53.082;8.816;2023-02-22T05:28:44;30.00;;;22.70;;
64887;SDS011;51386;53.082;8.816;2023-02-22T05:31:12;29.13;;;21.63;;
64887;SDS011;51386;53.082;8.816;2023-02-22T05:33:39;30.90;;;20.20;;
64887;SDS011;51386;53.082;8.816;2023-02-22T05:36:07;27.00;;;20.73;;
64887;SDS011;51386;53.082;8.816;2023-02-22T05:38:35;30.53;;;20.23;;
64887;SDS011;51386;53.082;8.816;2023-02-22T05:41:08;31.80;;;22.33;;
64887;SDS011;51386;53.082;8.816;2023-02-22T05:43:37;28.87;;;21.47;;
64887;SDS011;51386;53.082;8.816;2023-02-22T05:46:05;33.53;;;21.90;;
64887;SDS011;51386;53.082;8.816;2023-02-22T05:48:33;29.37;;;21.70;;
64887;SDS011;51386;53.082;8.816;2023-02-22T05:51:00;30.03;;;21.53;;
64887;SDS011;51386;53.082;8.816;2023-02-22T05:53:29;31.03;;;22.13;;
64887;SDS011;51386;53.082;8.816;2023-02-22T05:55:56;32.27;;;21.80;;
64887;SDS011;51386;53.082;8.816;2023-02-22T05:58:24;33.17;;;20.83;;
64887;SDS011;51386;53.082;8.816;2023-02-22T06:00:51;30.83;;;20.83;;
64887;SDS011;51386;53.082;8.816;2023-02-22T06:03:18;38.83;;;20.10;;
64887;SDS011;51386;53.082;8.816;2023-02-22T06:05:46;32.40;;;20.93;;
64887;SDS011;51386;53.082;8.816;2023-02-22T06:08:13;29.83;;;20.13;;
64887;SDS011;51386;53.082;8.816;2023-02-22T06:10:40;25.63;;;17.87;;
64887;SDS011;51386;53.082;8.816;2023-02-22T06:13:07;26.93;;;18.17;;
64887;SDS011;51386;53.082;8.816;2023-02-22T06:15:35;28.03;;;19.03;;
64887;SDS011;51386;53.082;8.816;2023-02-22T06:18:02;28.07;;;19.50;;
64887;SDS011;51386;53.082;8.816;2023-02-22T06:20:29;29.83;;;20.90;;
64887;SDS011;51386;53.082;8.816;2023-02-22T06:23:00;28.67;;;20.07;;
64887;SDS011;51386;53.082;8.816;2023-02-22T06:25:27;29.77;;;19.63;;
64887;SDS011;51386;53.082;8.816;2023-02-22T06:27:57;28.67;;;20.60;;
64887;SDS011;51386;53.082;8.816;2023-02-22T06:30:24;33.27;;;19.37;;
64887;SDS011;51386;53.082;8.816;2023-02-22T06:32:54;28.73;;;20.73;;
64887;SDS011;51386;53.082;8.816;2023-02-22T06:35:21;26.67;;;19.33;;
64887;SDS011;51386;53.082;8.816;2023-02-22T06:37:48;30.70;;;19.73;;
64887;SDS011;51386;53.082;8.816;2023-02-22T06:40:17;27.13;;;19.20;;
64887;SDS011;51386;53.082;8.816;2023-02-22T06:42:46;28.77;;;20.10;;
64887;SDS011;51386;53.082;8.816;2023-02-22T06:45:14;29.37;;;19.00;;
64887;SDS011;51386;53.082;8.816;2023-02-22T06:47:43;29.37;;;20.40;;
64887;SDS011;51386;53.082;8.816;2023-02-22T06:50:16;32.03;;;22.23;;
64887;SDS011;51386;53.082;8.816;2023-02-22T06:52:46;26.93;;;18.63;;
64887;SDS011;51386;53.082;8.816;2023-02-22T06:55:19;28.03;;;19.03;;
64887;SDS011;51386;53.082;8.816;2023-02-22T06:57:49;28.00;;;19.13;;
64887;SDS011;51386;53.082;8.816;2023-02-22T07:00:17;47.37;;;32.00;;
64887;SDS011;51386;53.082;8.816;2023-02-22T07:02:50;31.67;;;20.97;;
64887;SDS011;51386;53.082;8.816;2023-02-22T07:05:19;31.17;;;20.30;;
64887;SDS011;51386;53.082;8.816;2023-02-22T07:07:48;29.97;;;20.27;;
64887;SDS011;51386;53.082;8.816;2023-02-22T07:10:21;30.83;;;20.87;;
64887;SDS011;51386;53.082;8.816;2023-02-22T07:12:54;29.87;;;19.53;;
64887;SDS011;51386;53.082;8.816;2023-02-22T07:15:22;31.00;;;20.50;;
64887;SDS011;51386;53.082;8.816;2023-02-22T07:17:51;30.03;;;19.80;;
64887;SDS011;51386;53.082;8.816;2023-02-22T07:20:18;30.13;;;19.23;;
64887;SDS011;51386;53.082;8.816;2023-02-22T07:22:48;30.10;;;18.43;;
64887;SDS011;51386;53.082;8.816;2023-02-22T07:25:16;26.07;;;17.30;;
64887;SDS011;51386;53.082;8.816;2023-02-22T07:27:45;30.03;;;19.47;;
64887;SDS011;51386;53.082;8.816;2023-02-22T07:30:16;27.90;;;19.53;;
64887;SDS011;51386;53.082;8.816;2023-02-22T07:32:45;28.63;;;19.80;;
64887;SDS011;51386;53.082;8.816;2023-02-22T07:35:14;31.50;;;19.50;;
64887;SDS011;51386;53.082;8.816;2023-02-22T07:37:42;26.93;;;18.43;;
64887;SDS011;51386;53.082;8.816;2023-02-22T07:40:10;29.17;;;19.77;;
64887;SDS011;51386;53.082;8.816;2023-02-22T07:42:50;27.40;;;17.83;;
64887;SDS011;51386;53.082;8.816;2023-02-22T07:45:20;26.37;;;16.80;;
64887;SDS011;51386;53.082;8.816;2023-02-22T07:47:48;29.57;;;17.67;;
64887;SDS011;51386;53.082;8.816;2023-02-22T07:50:15;22.97;;;16.03;;
64887;SDS011;51386;53.082;8.816;2023-02-22T07:52:44;26.87;;;17.37;;
64887;SDS011;51386;53.082;8.816;2023-02-22T07:55:13;24.47;;;16.73;;
64887;SDS011;51386;53.082;8.816;2023-02-22T07:57:42;25.77;;;16.17;;
64887;SDS011;51386;53.082;8.816;2023-02-22T08:00:14;24.73;;;16.97;;
64887;SDS011;51386;53.082;8.816;2023-02-22T08:02:48;25.13;;;15.43;;
64887;SDS011;51386;53.082;8.816;2023-02-22T08:05:16;23.60;;;15.67;;
64887;SDS011;51386;53.082;8.816;2023-02-22T08:07:45;24.47;;;15.77;;
64887;SDS011;51386;53.082;8.816;2023-02-22T08:10:12;20.40;;;13.87;;
64887;SDS011;51386;53.082;8.816;2023-02-22T08:12:43;21.07;;;14.47;;
64887;SDS011;51386;53.082;8.816;2023-02-22T08:15:15;21.83;;;15.30;;
64887;SDS011;51386;53.082;8.816;2023-02-22T08:17:45;20.70;;;15.70;;
64887;SDS011;51386;53.082;8.816;2023-02-22T08:20:12;24.20;;;15.73;;
64887;SDS011;51386;53.082;8.816;2023-02-22T08:22:41;20.30;;;14.20;;
64887;SDS011;51386;53.082;8.816;2023-02-22T08:25:09;22.37;;;15.10;;
64887;SDS011;51386;53.082;8.816;2023-02-22T08:27:36;24.10;;;15.70;;
64887;SDS011;51386;53.082;8.816;2023-02-22T08:30:04;22.37;;;15.07;;
64887;SDS011;51386;53.082;8.816;2023-02-22T08:32:34;24.30;;;15.93;;
64887;SDS011;51386;53.082;8.816;2023-02-22T08:35:01;24.50;;;16.13;;
64887;SDS011;51386;53.082;8.816;2023-02-22T08:37:28;23.13;;;15.40;;
64887;SDS011;51386;53.082;8.816;2023-02-22T08:39:55;23.30;;;15.30;;
64887;SDS011;51386;53.082;8.816;2023-02-22T08:42:22;22.83;;;15.37;;
64887;SDS011;51386;53.082;8.816;2023-02-22T08:44:49;22.27;;;15.97;;
64887;SDS011;51386;53.082;8.816;2023-02-22T08:47:16;22.23;;;15.80;;
64887;SDS011;51386;53.082;8.816;2023-02-22T08:49:45;23.33;;;15.33;;
64887;SDS011;51386;53.082;8.816;2023-02-22T08:52:11;23.80;;;15.57;;
64887;SDS011;51386;53.082;8.816;2023-02-22T08:54:38;26.53;;;16.37;;
64887;SDS011;51386;53.082;8.816;2023-02-22T08:57:05;22.50;;;14.40;;
64887;SDS011;51386;53.082;8.816;2023-02-22T08:59:32;21.77;;;16.00;;
64887;SDS011;51386;53.082;8.816;2023-02-22T09:01:59;22.73;;;15.07;;
64887;SDS011;51386;53.082;8.816;2023-02-22T09:04:27;21.73;;;15.50;;
64887;SDS011;51386;53.082;8.816;2023-02-22T09:06:56;23.20;;;15.73;;
64887;SDS011;51386;53.082;8.816;2023-02-22T09:09:23;22.20;;;15.47;;
64887;SDS011;51386;53.082;8.816;2023-02-22T09:11:50;24.50;;;15.33;;
64887;SDS011;51386;53.082;8.816;2023-02-22T09:14:18;20.57;;;13.57;;
64887;SDS011;51386;53.082;8.816;2023-02-22T09:16:45;20.80;;;14.50;;
64887;SDS011;51386;53.082;8.816;2023-02-22T09:19:12;24.73;;;15.17;;
64887;SDS011;51386;53.082;8.816;2023-02-22T09:21:39;19.03;;;13.93;;
64887;SDS011;51386;53.082;8.816;2023-02-22T09:24:08;21.57;;;15.10;;
64887;SDS011;51386;53.082;8.816;2023-02-22T09:26:35;20.03;;;14.87;;
64887;SDS011;51386;53.082;8.816;2023-02-22T09:29:05;23.47;;;16.73;;
64887;SDS011;51386;53.082;8.816;2023-02-22T09:31:35;25.73;;;16.80;;
64887;SDS011;51386;53.082;8.816;2023-02-22T09:34:04;27.70;;;17.67;;
64887;SDS011;51386;53.082;8.816;2023-02-22T09:36:39;19.83;;;14.43;;
64887;SDS011;51386;53.082;8.816;2023-02-22T09:39:07;19.37;;;14.50;;
64887;SDS011;51386;53.082;8.816;2023-02-22T09:41:38;21.20;;;13.67;;
64887;SDS011;51386;53.082;8.816;2023-02-22T09:44:17;17.57;;;12.93;;
64887;SDS011;51386;53.082;8.816;2023-02-22T09:46:54;22.97;;;15.37;;
64887;SDS011;51386;53.082;8.816;2023-02-22T09:49:26;22.80;;;15.17;;
64887;SDS011;51386;53.082;8.816;2023-02-22T09:52:00;19.30;;;14.63;;
64887;SDS011;51386;53.082;8.816;2023-02-22T09:54:39;18.77;;;14.63;;
64887;SDS011;51386;53.082;8.816;2023-02-22T09:57:12;15.73;;;13.20;;
64887;SDS011;51386;53.082;8.816;2023-02-22T09:59:46;22.10;;;14.37;;
64887;SDS011;51386;53.082;8.816;2023-02-22T10:02:27;33.93;;;30.30;;
64887;SDS011;51386;53.082;8.816;2023-02-22T10:05:02;17.43;;;14.57;;
64887;SDS011;51386;53.082;8.816;2023-02-22T10:07:39;17.73;;;13.80;;
64887;SDS011;51386;53.082;8.816;2023-02-22T10:10:18;18.17;;;15.00;;
64887;SDS011;51386;53.082;8.816;2023-02-22T10:12:50;18.60;;;14.83;;
64887;SDS011;51386;53.082;8.816;2023-02-22T10:15:39;17.33;;;13.43;;
64887;SDS011;51386;53.082;8.816;2023-02-22T10:18:26;18.93;;;12.90;;
64887;SDS011;51386;53.082;8.816;2023-02-22T10:21:19;22.43;;;16.93;;
64887;SDS011;51386;53.082;8.816;2023-02-22T10:24:17;19.53;;;14.57;;
64887;SDS011;51386;53.082;8.816;2023-02-22T10:27:07;22.83;;;16.33;;
64887;SDS011;51386;53.082;8.816;2023-02-22T10:29:45;19.47;;;14.63;;
64887;SDS011;51386;53.082;8.816;2023-02-22T10:32:19;18.13;;;13.67;;
64887;SDS011;51386;53.082;8.816;2023-02-22T10:34:54;19.77;;;14.47;;
64887;SDS011;51386;53.082;8.816;2023-02-22T10:37:25;20.60;;;14.67;;
64887;SDS011;51386;53.082;8.816;2023-02-22T10:39:57;18.10;;;14.00;;
64887;SDS011;51386;53.082;8.816;2023-02-22T10:42:39;19.77;;;14.27;;
64887;SDS011;51386;53.082;8.816;2023-02-22T10:45:13;18.27;;;13.97;;
64887;SDS011;51386;53.082;8.816;2023-02-22T10:47:49;20.03;;;14.30;;
64887;SDS011;51386;53.082;8.816;2023-02-22T10:50:19;17.60;;;14.00;;
64887;SDS011;51386;53.082;8.816;2023-02-22T10:52:47;19.27;;;14.37;;
64887;SDS011;51386;53.082;8.816;2023-02-22T10:55:15;18.93;;;13.97;;
64887;SDS011;51386;53.082;8.816;2023-02-22T10:57:44;18.20;;;13.83;;
64887;SDS011;51386;53.082;8.816;2023-02-22T11:00:17;17.93;;;13.27;;
64887;SDS011;51386;53.082;8.816;2023-02-22T11:02:52;20.40;;;14.97;;
64887;SDS011;51386;53.082;8.816;2023-02-22T11:05:26;18.17;;;14.27;;
64887;SDS011;51386;53.082;8.816;2023-02-22T11:08:14;19.27;;;14.47;;
64887;SDS011;51386;53.082;8.816;2023-02-22T11:10:53;19.20;;;14.43;;
64887;SDS011;51386;53.082;8.816;2023-02-22T11:13:26;18.03;;;13.83;;
64887;SDS011;51386;53.082;8.816;2023-02-22T11:15:57;19.07;;;14.87;;
64887;SDS011;51386;53.082;8.816;2023-02-22T11:18:28;15.20;;;12.83;;
64887;SDS011;51386;53.082;8.816;2023-02-22T11:21:00;17.77;;;13.30;;
64887;SDS011;51386;53.082;8.816;2023-02-22T11:23:30;17.07;;;13.27;;
64887;SDS011;51386;53.082;8.816;2023-02-22T11:26:06;16.63;;;14.83;;
64887;SDS011;51386;53.082;8.816;2023-02-22T11:28:37;18.00;;;14.50;;
64887;SDS011;51386;53.082;8.816;2023-02-22T11:31:15;18.53;;;15.80;;
64887;SDS011;51386;53.082;8.816;2023-02-22T11:33:51;18.63;;;14.27;;
64887;SDS011;51386;53.082;8.816;2023-02-22T11:36:31;17.13;;;14.97;;
64887;SDS011;51386;53.082;8.816;2023-02-22T11:39:10;19.70;;;14.77;;
64887;SDS011;51386;53.082;8.816;2023-02-22T11:41:49;18.90;;;14.93;;
64887;SDS011;51386;53.082;8.816;2023-02-22T11:44:22;17.50;;;13.73;;
64887;SDS011;51386;53.082;8.816;2023-02-22T11:46:52;18.60;;;13.47;;
64887;SDS011;51386;53.082;8.816;2023-02-22T11:49:23;16.43;;;13.53;;
64887;SDS011;51386;53.082;8.816;2023-02-22T11:52:11;21.10;;;13.63;;
64887;SDS011;51386;53.082;8.816;2023-02-22T11:54:55;19.63;;;15.53;;
64887;SDS011;51386;53.082;8.816;2023-02-22T11:58:09;18.70;;;14.93;;
64887;SDS011;51386;53.082;8.816;2023-02-22T12:00:57;18.63;;;14.43;;
64887;SDS011;51386;53.082;8.816;2023-02-22T12:03:37;22.70;;;15.03;;
64887;SDS011;51386;53.082;8.816;2023-02-22T12:06:29;18.20;;;15.47;;
64887;SDS011;51386;53.082;8.816;2023-02-22T12:09:11;19.00;;;15.07;;
64887;SDS011;51386;53.082;8.816;2023-02-22T12:11:47;20.30;;;15.20;;
64887;SDS011;51386;53.082;8.816;2023-02-22T12:14:25;17.17;;;14.10;;
64887;SDS011;51386;53.082;8.816;2023-02-22T12:17:15;19.40;;;13.50;;
64887;SDS011;51386;53.082;8.816;2023-02-22T12:19:52;22.97;;;15.97;;
64887;SDS011;51386;53.082;8.816;2023-02-22T12:22:27;19.53;;;15.30;;
64887;SDS011;51386;53.082;8.816;2023-02-22T12:25:01;17.93;;;13.17;;
64887;SDS011;51386;53.082;8.816;2023-02-22T12:27:35;18.73;;;14.27;;
64887;SDS011;51386;53.082;8.816;2023-02-22T12:30:10;18.73;;;14.63;;
64887;SDS011;51386;53.082;8.816;2023-02-22T12:32:48;19.20;;;13.73;;
64887;SDS011;51386;53.082;8.816;2023-02-22T12:35:19;20.17;;;14.97;;
64887;SDS011;51386;53.082;8.816;2023-02-22T12:37:52;16.73;;;14.30;;
64887;SDS011;51386;53.082;8.816;2023-02-22T12:40:31;17.30;;;14.40;;
64887;SDS011;51386;53.082;8.816;2023-02-22T12:43:07;17.70;;;13.80;;
64887;SDS011;51386;53.082;8.816;2023-02-22T12:45:43;23.67;;;16.10;;
64887;SDS011;51386;53.082;8.816;2023-02-22T12:48:20;18.50;;;15.53;;
64887;SDS011;51386;53.082;8.816;2023-02-22T12:51:02;19.30;;;14.73;;
64887;SDS011;51386;53.082;8.816;2023-02-22T12:53:48;19.97;;;15.33;;
64887;SDS011;51386;53.082;8.816;2023-02-22T12:56:24;20.03;;;14.33;;
64887;SDS011;51386;53.082;8.816;2023-02-22T12:58:59;19.37;;;14.73;;
64887;SDS011;51386;53.082;8.816;2023-02-22T13:01:35;18.07;;;14.70;;
64887;SDS011;51386;53.082;8.816;2023-02-22T13:04:09;20.37;;;15.30;;
64887;SDS011;51386;53.082;8.816;2023-02-22T13:06:49;18.50;;;14.47;;
64887;SDS011;51386;53.082;8.816;2023-02-22T13:12:49;18.07;;;13.60;;
64887;SDS011;51386;53.082;8.816;2023-02-22T13:15:30;17.63;;;14.13;;
64887;SDS011;51386;53.082;8.816;2023-02-22T13:18:12;19.60;;;15.27;;
64887;SDS011;51386;53.082;8.816;2023-02-22T13:20:49;19.43;;;15.63;;
64887;SDS011;51386;53.082;8.816;2023-02-22T13:23:33;19.30;;;15.20;;
64887;SDS011;51386;53.082;8.816;2023-02-22T13:26:13;18.40;;;14.63;;
64887;SDS011;51386;53.082;8.816;2023-02-22T13:28:50;19.90;;;14.97;;
64887;SDS011;51386;53.082;8.816;2023-02-22T13:31:39;22.97;;;16.60;;
64887;SDS011;51386;53.082;8.816;2023-02-22T13:34:29;19.47;;;14.37;;
64887;SDS011;51386;53.082;8.816;2023-02-22T13:40:38;18.80;;;14.93;;
64887;SDS011;51386;53.082;8.816;2023-02-22T13:50:32;18.67;;;15.03;;
64887;SDS011;51386;53.082;8.816;2023-02-22T13:53:19;19.67;;;14.30;;
64887;SDS011;51386;53.082;8.816;2023-02-22T13:55:52;19.77;;;15.53;;
64887;SDS011;51386;53.082;8.816;2023-02-22T13:58:25;19.13;;;15.30;;
64887;SDS011;51386;53.082;8.816;2023-02-22T14:00:53;20.20;;;15.50;;
64887;SDS011;51386;53.082;8.816;2023-02-22T14:03:31;19.63;;;15.23;;
64887;SDS011;51386;53.082;8.816;2023-02-22T14:06:03;16.00;;;13.63;;
64887;SDS011;51386;53.082;8.816;2023-02-22T14:08:39;18.67;;;13.80;;
64887;SDS011;51386;53.082;8.816;2023-02-22T14:14:11;17.87;;;15.13;;
64887;SDS011;51386;53.082;8.816;2023-02-22T14:16:42;17.53;;;14.30;;
64887;SDS011;51386;53.082;8.816;2023-02-22T14:19:30;19.70;;;15.07;;
64887;SDS011;51386;53.082;8.816;2023-02-22T14:21:58;21.13;;;16.93;;
64887;SDS011;51386;53.082;8.816;2023-02-22T14:24:29;19.27;;;14.93;;
64887;SDS011;51386;53.082;8.816;2023-02-22T14:27:09;18.63;;;14.33;;
64887;SDS011;51386;53.082;8.816;2023-02-22T14:29:47;18.33;;;14.83;;
64887;SDS011;51386;53.082;8.816;2023-02-22T14:32:18;19.23;;;14.87;;
64887;SDS011;51386;53.082;8.816;2023-02-22T14:34:55;20.47;;;15.73;;
64887;SDS011;51386;53.082;8.816;2023-02-22T14:37:26;21.83;;;16.90;;
64887;SDS011;51386;53.082;8.816;2023-02-22T14:40:01;18.03;;;13.80;;
64887;SDS011;51386;53.082;8.816;2023-02-22T14:42:40;20.73;;;15.13;;
64887;SDS011;51386;53.082;8.816;2023-02-22T14:45:15;21.87;;;14.73;;
64887;SDS011;51386;53.082;8.816;2023-02-22T14:47:52;18.87;;;15.30;;
64887;SDS011;51386;53.082;8.816;2023-02-22T14:50:32;21.27;;;15.40;;
64887;SDS011;51386;53.082;8.816;2023-02-22T14:53:12;21.03;;;16.03;;
64887;SDS011;51386;53.082;8.816;2023-02-22T14:55:53;17.83;;;14.63;;
64887;SDS011;51386;53.082;8.816;2023-02-22T14:58:29;18.27;;;15.27;;
64887;SDS011;51386;53.082;8.816;2023-02-22T15:01:21;16.63;;;14.33;;
64887;SDS011;51386;53.082;8.816;2023-02-22T15:04:15;17.90;;;14.27;;
64887;SDS011;51386;53.082;8.816;2023-02-22T15:06:44;20.07;;;14.93;;
64887;SDS011;51386;53.082;8.816;2023-02-22T15:09:13;18.07;;;14.90;;
64887;SDS011;51386;53.082;8.816;2023-02-22T15:11:53;17.07;;;14.63;;